Time;durP1;ratioP1;P1;durP2;ratioP2;P2;SDS_P1;SDS_P2;PMS_P1;PMS_P2;Temp;Humidity;BMP_temperature;BMP_pressure;BME280_temperature;BME280_humidity;BME280_pressure;Samples;Min_cycle;Max_cycle;Signal;HPM_P1;HPM_P2
2020/12/01 00:00:36;;;;;;;33.60;18.30;;;;;;;;;;3587107;40;20281;-95
2020/12/01 00:03:02;;;;;;;34.03;17.85;;;;;;;;;;3590571;40;20249;-96
2020/12/01 00:05:28;;;;;;;36.47;17.73;;;;;;;;;;3587467;40;20320;-95
2020/12/01 00:07:54;;;;;;;30.70;17.42;;;;;;;;;;3582338;40;20788;-95
2020/12/01 00:10:21;;;;;;;30.55;16.55;;;;;;;;;;3582173;40;20283;-94
2020/12/01 00:12:48;;;;;;;30.92;16.88;;;;;;;;;;3589824;40;20259;-95
2020/12/01 00:15:15;;;;;;;30.13;17.13;;;;;;;;;;3589545;40;20256;-95
2020/12/01 00:17:41;;;;;;;28.67;16.35;;;;;;;;;;3584135;40;20279;-94
2020/12/01 00:20:09;;;;;;;27.30;15.43;;;;;;;;;;3591809;40;20267;-95
2020/12/01 00:22:35;;;;;;;29.52;16.63;;;;;;;;;;3587314;40;20287;-94
2020/12/01 00:25:01;;;;;;;31.80;16.73;;;;;;;;;;3591587;40;20271;-94
2020/12/01 00:27:28;;;;;;;28.00;16.02;;;;;;;;;;3589513;40;20266;-94
2020/12/01 00:29:54;;;;;;;25.45;14.88;;;;;;;;;;3593254;40;20255;-95
2020/12/01 00:32:20;;;;;;;27.10;14.82;;;;;;;;;;3590856;40;20293;-94
2020/12/01 00:34:46;;;;;;;26.05;16.25;;;;;;;;;;3585616;40;20266;-96
2020/12/01 00:37:12;;;;;;;27.35;15.10;;;;;;;;;;3586110;40;20384;-96
2020/12/01 00:39:38;;;;;;;32.55;15.25;;;;;;;;;;3587237;40;20267;-95
2020/12/01 00:42:04;;;;;;;30.05;16.65;;;;;;;;;;3580217;40;20266;-94
2020/12/01 00:44:31;;;;;;;29.73;17.15;;;;;;;;;;3583164;40;20266;-95
2020/12/01 00:47:01;;;;;;;33.38;17.60;;;;;;;;;;3590137;40;20275;-95
2020/12/01 00:49:27;;;;;;;34.08;17.25;;;;;;;;;;3597204;32;20300;-95
2020/12/01 00:51:53;;;;;;;27.05;16.08;;;;;;;;;;3631299;32;20265;-93
2020/12/01 00:54:22;;;;;;;26.38;15.48;;;;;;;;;;3590659;40;20266;-94
2020/12/01 00:56:48;;;;;;;28.17;16.42;;;;;;;;;;3597251;40;20242;-96
2020/12/01 00:59:14;;;;;;;27.20;15.63;;;;;;;;;;3603939;32;20245;-95
2020/12/01 01:01:41;;;;;;;27.05;15.15;;;;;;;;;;3588337;40;20347;-94
2020/12/01 01:04:07;;;;;;;31.30;17.65;;;;;;;;;;3588039;40;20306;-94
2020/12/01 01:06:33;;;;;;;24.63;14.80;;;;;;;;;;3586114;40;20279;-95
2020/12/01 01:08:59;;;;;;;31.05;16.67;;;;;;;;;;3589510;40;20332;-95
2020/12/01 01:11:29;;;;;;;32.27;17.43;;;;;;;;;;3588365;40;20254;-94
2020/12/01 01:13:55;;;;;;;31.90;18.15;;;;;;;;;;3587190;40;20372;-93
2020/12/01 01:16:23;;;;;;;32.53;17.90;;;;;;;;;;3590215;40;20251;-94
2020/12/01 01:18:50;;;;;;;28.33;17.60;;;;;;;;;;3589719;40;20270;-95
2020/12/01 01:21:16;;;;;;;30.85;17.25;;;;;;;;;;3590601;40;20291;-94
2020/12/01 01:23:42;;;;;;;42.78;18.13;;;;;;;;;;3591168;40;20311;-95
2020/12/01 01:26:08;;;;;;;24.50;15.30;;;;;;;;;;3597897;40;20247;-95
2020/12/01 01:28:34;;;;;;;36.80;18.33;;;;;;;;;;3595098;32;20441;-94
2020/12/01 01:31:00;;;;;;;30.23;16.35;;;;;;;;;;3587728;40;20355;-93
2020/12/01 01:33:26;;;;;;;33.95;19.40;;;;;;;;;;3588356;40;20403;-94
2020/12/01 01:35:54;;;;;;;30.85;16.83;;;;;;;;;;3596390;40;20730;-94
2020/12/01 01:38:20;;;;;;;33.03;16.23;;;;;;;;;;3601310;40;20331;-94
2020/12/01 01:40:46;;;;;;;28.52;15.63;;;;;;;;;;3589506;40;20246;-94
2020/12/01 01:43:12;;;;;;;31.23;16.50;;;;;;;;;;3589848;40;20283;-95
2020/12/01 01:45:39;;;;;;;33.13;18.07;;;;;;;;;;3586847;40;20365;-95
2020/12/01 01:48:12;;;;;;;28.90;15.40;;;;;;;;;;3589491;40;20502;-95
2020/12/01 01:50:38;;;;;;;28.02;15.30;;;;;;;;;;3585534;40;20383;-94
2020/12/01 01:53:05;;;;;;;34.20;17.50;;;;;;;;;;3586638;40;20273;-94
2020/12/01 01:55:31;;;;;;;34.78;16.85;;;;;;;;;;3588193;40;20288;-93
2020/12/01 01:57:59;;;;;;;30.73;16.52;;;;;;;;;;3584074;40;20267;-93
2020/12/01 02:00:40;;;;;;;31.45;16.38;;;;;;;;;;3589874;40;20251;-94
2020/12/01 02:03:06;;;;;;;23.80;13.70;;;;;;;;;;3594470;40;20312;-93
2020/12/01 02:05:32;;;;;;;26.80;15.10;;;;;;;;;;3600724;40;20242;-93
2020/12/01 02:07:58;;;;;;;28.87;16.83;;;;;;;;;;3590333;40;20380;-93
2020/12/01 02:10:25;;;;;;;31.35;18.55;;;;;;;;;;3579155;40;20434;-93
2020/12/01 02:12:53;;;;;;;30.00;17.38;;;;;;;;;;3590022;40;20339;-94
2020/12/01 02:15:19;;;;;;;30.48;17.30;;;;;;;;;;3598798;40;20334;-94
2020/12/01 02:17:45;;;;;;;30.40;17.63;;;;;;;;;;3595381;40;20278;-93
2020/12/01 02:20:12;;;;;;;31.45;17.13;;;;;;;;;;3594552;32;20247;-93
2020/12/01 02:22:39;;;;;;;34.25;17.00;;;;;;;;;;3595194;40;20230;-94
2020/12/01 02:25:05;;;;;;;28.75;16.83;;;;;;;;;;3589809;40;20254;-94
2020/12/01 02:27:32;;;;;;;30.27;17.23;;;;;;;;;;3588375;40;20295;-93
2020/12/01 02:29:59;;;;;;;33.08;17.30;;;;;;;;;;3582253;40;20447;-94
2020/12/01 02:32:26;;;;;;;32.47;17.35;;;;;;;;;;3577453;40;20254;-94
2020/12/01 02:34:54;;;;;;;32.15;17.70;;;;;;;;;;3578936;40;20274;-94
2020/12/01 02:37:21;;;;;;;30.13;16.23;;;;;;;;;;3588085;40;20238;-95
2020/12/01 02:39:47;;;;;;;31.15;16.77;;;;;;;;;;3587524;40;20318;-95
2020/12/01 02:42:14;;;;;;;23.83;14.77;;;;;;;;;;3578263;40;20371;-94
2020/12/01 02:44:41;;;;;;;27.30;14.35;;;;;;;;;;3580947;40;20392;-94
2020/12/01 02:47:07;;;;;;;23.58;14.70;;;;;;;;;;3579257;40;20324;-93
2020/12/01 02:49:33;;;;;;;27.25;14.40;;;;;;;;;;3583715;32;20247;-94
2020/12/01 02:51:59;;;;;;;23.42;13.90;;;;;;;;;;3591701;40;20342;-94
2020/12/01 02:54:25;;;;;;;30.67;15.02;;;;;;;;;;3601193;40;20262;-93
2020/12/01 02:56:51;;;;;;;33.80;15.95;;;;;;;;;;3594204;40;20276;-93
2020/12/01 02:59:18;;;;;;;29.42;15.85;;;;;;;;;;3591852;40;20278;-94
2020/12/01 03:01:45;;;;;;;33.20;16.88;;;;;;;;;;3591791;40;20239;-93
2020/12/01 03:04:11;;;;;;;25.48;14.95;;;;;;;;;;3601618;39;20984;-94
2020/12/01 03:06:37;;;;;;;27.27;15.13;;;;;;;;;;3601849;40;20339;-94
2020/12/01 03:09:05;;;;;;;24.92;14.45;;;;;;;;;;3589836;40;20279;-93
2020/12/01 03:11:31;;;;;;;26.85;14.25;;;;;;;;;;3580448;40;20290;-93
2020/12/01 03:13:57;;;;;;;28.55;14.32;;;;;;;;;;3586357;40;20281;-94
2020/12/01 03:16:23;;;;;;;24.48;13.93;;;;;;;;;;3592067;40;20707;-93
2020/12/01 03:18:50;;;;;;;27.77;15.32;;;;;;;;;;3589350;40;21261;-94
2020/12/01 03:21:16;;;;;;;34.10;16.52;;;;;;;;;;3591648;40;20274;-96
2020/12/01 03:23:42;;;;;;;30.02;16.02;;;;;;;;;;3589656;40;20243;-94
2020/12/01 03:26:09;;;;;;;36.20;17.25;;;;;;;;;;3589346;40;20270;-95
2020/12/01 03:28:35;;;;;;;35.50;18.00;;;;;;;;;;3592709;40;20344;-95
2020/12/01 03:31:01;;;;;;;33.20;17.90;;;;;;;;;;3597374;40;21034;-94
2020/12/01 03:33:27;;;;;;;29.05;15.20;;;;;;;;;;3602730;40;20799;-94
2020/12/01 03:35:54;;;;;;;32.08;16.20;;;;;;;;;;3586924;40;20274;-94
2020/12/01 03:38:20;;;;;;;28.52;15.82;;;;;;;;;;3580924;40;20883;-95
2020/12/01 03:40:47;;;;;;;25.45;14.35;;;;;;;;;;3589165;40;20275;-95
2020/12/01 03:43:13;;;;;;;28.55;15.55;;;;;;;;;;3590567;40;20335;-95
2020/12/01 03:45:39;;;;;;;31.35;15.95;;;;;;;;;;3589189;40;20332;-94
2020/12/01 03:48:10;;;;;;;30.40;16.15;;;;;;;;;;3585928;40;20254;-95
2020/12/01 03:50:36;;;;;;;30.15;16.20;;;;;;;;;;3580875;40;20295;-95
2020/12/01 03:53:04;;;;;;;29.10;15.65;;;;;;;;;;3589199;40;20246;-95
2020/12/01 03:55:30;;;;;;;26.40;14.93;;;;;;;;;;3594299;40;20652;-95
2020/12/01 03:57:56;;;;;;;26.15;15.23;;;;;;;;;;3590794;40;21198;-95
2020/12/01 04:00:24;;;;;;;26.02;14.57;;;;;;;;;;3597231;32;20254;-95
2020/12/01 04:02:50;;;;;;;26.50;13.68;;;;;;;;;;3588717;40;20251;-95
2020/12/01 04:05:17;;;;;;;25.42;13.43;;;;;;;;;;3608530;32;20293;-95
2020/12/01 04:07:45;;;;;;;25.65;13.95;;;;;;;;;;3598344;39;20278;-96
2020/12/01 04:10:14;;;;;;;24.58;12.95;;;;;;;;;;3594796;40;20841;-94
2020/12/01 04:12:40;;;;;;;24.77;12.45;;;;;;;;;;3593210;40;20352;-95
2020/12/01 04:15:07;;;;;;;30.05;16.13;;;;;;;;;;3590162;40;20337;-94
2020/12/01 04:17:34;;;;;;;24.38;13.07;;;;;;;;;;3591217;40;20258;-95
2020/12/01 04:20:00;;;;;;;27.98;12.95;;;;;;;;;;3592681;40;20290;-95
2020/12/01 04:22:26;;;;;;;27.70;13.65;;;;;;;;;;3592632;40;20344;-95
2020/12/01 04:24:52;;;;;;;26.25;13.27;;;;;;;;;;3589820;40;20250;-95
2020/12/01 04:27:19;;;;;;;23.48;12.90;;;;;;;;;;3591256;40;20231;-95
2020/12/01 04:29:45;;;;;;;25.08;13.10;;;;;;;;;;3590882;40;20255;-94
2020/12/01 04:32:11;;;;;;;25.23;12.70;;;;;;;;;;3580799;40;20275;-95
2020/12/01 04:34:37;;;;;;;23.20;11.80;;;;;;;;;;3583317;40;20638;-94
2020/12/01 04:37:04;;;;;;;25.55;12.90;;;;;;;;;;3585408;40;20254;-95
2020/12/01 04:39:31;;;;;;;27.08;13.23;;;;;;;;;;3586560;40;20255;-95
2020/12/01 04:41:57;;;;;;;26.98;12.48;;;;;;;;;;3582070;40;21000;-95
2020/12/01 04:44:26;;;;;;;33.20;16.05;;;;;;;;;;3581595;40;20251;-96
2020/12/01 04:46:54;;;;;;;27.75;15.10;;;;;;;;;;3585458;40;20280;-95
2020/12/01 04:49:22;;;;;;;31.08;16.00;;;;;;;;;;3600774;40;20270;-94
2020/12/01 04:51:55;;;;;;;29.63;16.30;;;;;;;;;;3599578;40;20269;-94
2020/12/01 04:54:36;;;;;;;38.70;18.52;;;;;;;;;;3583535;40;20263;-96
2020/12/01 04:57:19;;;;;;;39.10;17.25;;;;;;;;;;3587971;40;20247;-95
2020/12/01 04:59:51;;;;;;;29.77;13.50;;;;;;;;;;3603462;32;20275;-96
2020/12/01 05:02:35;;;;;;;29.65;15.05;;;;;;;;;;3604477;40;20229;-95
2020/12/01 05:05:20;;;;;;;30.52;17.15;;;;;;;;;;3586634;40;20317;-96
2020/12/01 05:07:58;;;;;;;30.38;16.17;;;;;;;;;;3571065;40;20247;-96
2020/12/01 05:10:24;;;;;;;29.77;16.10;;;;;;;;;;3580621;32;20270;-95
2020/12/01 05:12:56;;;;;;;34.20;17.20;;;;;;;;;;3582569;32;20296;-95
2020/12/01 05:15:24;;;;;;;32.65;16.90;;;;;;;;;;3579224;32;20340;-95
2020/12/01 05:17:53;;;;;;;32.03;17.08;;;;;;;;;;3584304;40;20382;-95
2020/12/01 05:20:19;;;;;;;26.52;14.30;;;;;;;;;;3576609;40;20255;-94
2020/12/01 05:22:50;;;;;;;29.70;14.07;;;;;;;;;;3573439;40;20263;-95
2020/12/01 05:25:17;;;;;;;31.50;14.60;;;;;;;;;;3573458;40;20278;-96
2020/12/01 05:27:44;;;;;;;29.48;14.52;;;;;;;;;;3573230;32;20263;-95
2020/12/01 05:30:13;;;;;;;35.55;17.30;;;;;;;;;;3581553;40;20306;-96
2020/12/01 05:32:40;;;;;;;32.40;14.48;;;;;;;;;;3583838;40;20232;-94
2020/12/01 05:35:15;;;;;;;31.75;16.10;;;;;;;;;;3577509;40;20725;-94
2020/12/01 05:37:49;;;;;;;34.38;17.60;;;;;;;;;;3577051;40;20278;-94
2020/12/01 05:40:15;;;;;;;37.35;19.55;;;;;;;;;;3578960;40;20253;-94
2020/12/01 05:42:43;;;;;;;33.85;15.45;;;;;;;;;;3577282;40;20359;-95
2020/12/01 05:45:16;;;;;;;31.00;14.50;;;;;;;;;;3578471;40;20258;-95
2020/12/01 05:47:46;;;;;;;34.47;16.90;;;;;;;;;;3577179;40;20257;-95
2020/12/01 05:50:20;;;;;;;28.90;14.70;;;;;;;;;;3585340;40;20242;-95
2020/12/01 06:05:59;;;;;;;31.05;15.48;;;;;;;;;;3577915;40;20243;-96
2020/12/01 06:08:34;;;;;;;32.00;16.23;;;;;;;;;;3577969;40;20255;-96
2020/12/01 06:31:54;;;;;;;42.35;19.20;;;;;;;;;;3587912;40;20208;-96
2020/12/01 06:34:39;;;;;;;38.15;20.48;;;;;;;;;;3577747;40;20321;-93
2020/12/01 06:37:16;;;;;;;42.22;23.30;;;;;;;;;;3614124;32;20248;-96
2020/12/01 07:26:52;;;;;;;54.17;29.85;;;;;;;;;;3599764;32;20313;-96
2020/12/01 07:29:26;;;;;;;59.15;32.33;;;;;;;;;;3594150;40;20278;-95
2020/12/01 07:41:22;;;;;;;60.15;33.40;;;;;;;;;;3582591;32;20208;-94
2020/12/01 07:43:58;;;;;;;62.13;33.65;;;;;;;;;;3619449;32;20260;-95
2020/12/01 07:46:27;;;;;;;58.25;32.15;;;;;;;;;;3578969;40;20263;-92
2020/12/01 08:30:39;;;;;;;53.00;29.65;;;;;;;;;;3601257;32;20223;-95
2020/12/01 08:33:15;;;;;;;53.83;30.35;;;;;;;;;;3598346;40;20293;-96
2020/12/01 08:35:46;;;;;;;59.70;34.10;;;;;;;;;;3590725;40;20246;-95
2020/12/01 08:38:20;;;;;;;58.30;33.08;;;;;;;;;;3588125;40;20352;-96
2020/12/01 08:40:51;;;;;;;50.22;29.02;;;;;;;;;;3586740;40;20238;-96
2020/12/01 08:43:21;;;;;;;50.45;28.45;;;;;;;;;;3587579;40;20258;-96
2020/12/01 08:48:28;;;;;;;44.30;25.67;;;;;;;;;;3575828;40;20313;-96
2020/12/01 08:51:11;;;;;;;42.97;25.02;;;;;;;;;;3575728;40;20248;-96
2020/12/01 08:53:52;;;;;;;45.95;25.50;;;;;;;;;;3576548;40;20247;-96
2020/12/01 08:56:33;;;;;;;43.47;25.27;;;;;;;;;;3576308;40;20324;-96
2020/12/01 09:04:38;;;;;;;46.72;25.88;;;;;;;;;;3567230;40;20256;-95
2020/12/01 09:07:21;;;;;;;46.90;26.80;;;;;;;;;;3567690;40;20271;-95
2020/12/01 09:09:49;;;;;;;43.22;26.50;;;;;;;;;;3575483;32;20264;-95
2020/12/01 09:12:21;;;;;;;45.13;26.08;;;;;;;;;;3567990;40;20224;-95
2020/12/01 09:17:45;;;;;;;45.70;27.13;;;;;;;;;;3567031;40;20224;-95
2020/12/01 09:23:16;;;;;;;48.65;27.30;;;;;;;;;;3579225;32;20326;-96
2020/12/01 09:25:45;;;;;;;50.15;27.33;;;;;;;;;;3572979;40;20228;-95
2020/12/01 09:28:13;;;;;;;53.15;30.40;;;;;;;;;;3572351;40;20248;-95
2020/12/01 09:30:42;;;;;;;48.72;29.25;;;;;;;;;;3576428;40;20221;-95
2020/12/01 09:33:14;;;;;;;53.63;30.58;;;;;;;;;;3578935;32;20244;-96
2020/12/01 09:40:55;;;;;;;55.22;28.65;;;;;;;;;;3715547;34;20404;-96
2020/12/01 09:46:03;;;;;;;50.90;28.58;;;;;;;;;;3577617;40;20236;-96
2020/12/01 09:48:32;;;;;;;47.65;27.75;;;;;;;;;;3575639;40;20218;-94
2020/12/01 09:50:59;;;;;;;47.78;28.50;;;;;;;;;;3586610;32;20315;-96
2020/12/01 09:53:41;;;;;;;47.20;28.48;;;;;;;;;;3584810;40;20254;-95
2020/12/01 09:56:47;;;;;;;47.88;27.25;;;;;;;;;;3588479;40;20235;-96
2020/12/01 10:12:40;;;;;;;48.10;30.55;;;;;;;;;;3583683;40;20246;-94
2020/12/01 10:26:31;;;;;;;46.55;27.55;;;;;;;;;;3555602;40;20393;-95
2020/12/01 10:35:52;;;;;;;49.03;28.83;;;;;;;;;;3642652;39;20267;-94
2020/12/01 10:38:18;;;;;;;120.70;62.50;;;;;;;;;;3639753;39;20373;-94
2020/12/01 10:40:44;;;;;;;133.37;116.40;;;;;;;;;;3641055;39;20336;-94
2020/12/01 10:43:10;;;;;;;45.50;30.87;;;;;;;;;;3639306;31;20363;-95
2020/12/01 10:45:36;;;;;;;43.47;28.27;;;;;;;;;;3640283;39;20897;-95
2020/12/01 10:48:03;;;;;;;45.50;28.70;;;;;;;;;;3641479;39;20411;-94
2020/12/01 10:50:31;;;;;;;48.20;28.70;;;;;;;;;;3647719;39;20327;-94
2020/12/01 10:52:57;;;;;;;52.20;31.53;;;;;;;;;;3640330;39;20378;-95
2020/12/01 10:55:25;;;;;;;51.27;28.67;;;;;;;;;;3640270;39;20314;-95
2020/12/01 10:57:52;;;;;;;49.63;28.97;;;;;;;;;;3642956;39;20335;-94
2020/12/01 11:00:19;;;;;;;41.42;27.50;;;;;;;;;;3637893;39;20343;-94
2020/12/01 11:02:45;;;;;;;42.70;27.88;;;;;;;;;;3640518;39;20297;-94
2020/12/01 11:05:13;;;;;;;42.83;27.70;;;;;;;;;;3634464;39;20263;-93
2020/12/01 11:07:40;;;;;;;42.47;25.27;;;;;;;;;;3629374;39;20245;-94
2020/12/01 11:10:06;;;;;;;37.85;23.90;;;;;;;;;;3630176;39;20283;-93
2020/12/01 11:12:32;;;;;;;36.17;22.45;;;;;;;;;;3640041;39;20254;-93
2020/12/01 11:14:58;;;;;;;39.00;22.63;;;;;;;;;;3638440;39;20244;-93
2020/12/01 11:17:24;;;;;;;39.42;25.40;;;;;;;;;;3636125;39;20243;-92
2020/12/01 11:19:50;;;;;;;43.83;23.30;;;;;;;;;;3640166;39;20289;-93
2020/12/01 11:22:17;;;;;;;39.80;23.27;;;;;;;;;;3636228;39;20425;-94
2020/12/01 11:24:44;;;;;;;39.08;24.25;;;;;;;;;;3638717;39;20260;-93
2020/12/01 11:27:10;;;;;;;41.78;24.25;;;;;;;;;;3636098;39;20721;-93
2020/12/01 11:29:36;;;;;;;39.50;23.20;;;;;;;;;;3639175;39;20278;-94
2020/12/01 11:32:02;;;;;;;39.40;25.45;;;;;;;;;;3636087;39;20720;-95
2020/12/01 11:34:28;;;;;;;39.25;24.77;;;;;;;;;;3640724;31;20262;-95
2020/12/01 11:36:55;;;;;;;43.15;25.75;;;;;;;;;;3641118;31;20234;-95
2020/12/01 11:39:21;;;;;;;51.38;29.05;;;;;;;;;;3639961;39;20240;-95
2020/12/01 11:41:59;;;;;;;50.10;29.42;;;;;;;;;;3619228;31;20333;-95
2020/12/01 11:44:25;;;;;;;46.00;27.65;;;;;;;;;;3569460;39;20258;-95
2020/12/01 11:46:51;;;;;;;47.07;27.80;;;;;;;;;;3572426;40;20239;-96
2020/12/01 11:49:18;;;;;;;46.43;27.80;;;;;;;;;;3606484;34;20380;-96
2020/12/01 11:54:56;;;;;;;46.03;26.60;;;;;;;;;;3634138;32;20407;-96
2020/12/01 11:57:23;;;;;;;44.67;26.90;;;;;;;;;;3738032;34;20367;-96
2020/12/01 11:59:50;;;;;;;46.63;27.60;;;;;;;;;;3629748;39;20388;-95
2020/12/01 12:02:16;;;;;;;39.47;26.10;;;;;;;;;;3629222;32;20336;-96
2020/12/01 12:04:44;;;;;;;44.80;26.53;;;;;;;;;;3634930;39;20269;-96
2020/12/01 12:07:10;;;;;;;37.90;25.93;;;;;;;;;;3649598;31;20342;-95
2020/12/01 12:09:43;;;;;;;42.10;24.07;;;;;;;;;;3647584;39;20322;-95
2020/12/01 12:12:10;;;;;;;39.73;24.17;;;;;;;;;;3623584;39;20347;-96
2020/12/01 12:17:18;;;;;;;34.60;21.60;;;;;;;;;;3596364;32;20349;-95
2020/12/01 12:19:45;;;;;;;42.00;21.20;;;;;;;;;;3595300;40;20342;-95
2020/12/01 12:22:11;;;;;;;35.53;24.20;;;;;;;;;;3591514;40;20393;-95
2020/12/01 12:24:38;;;;;;;39.53;25.30;;;;;;;;;;3585610;40;20361;-96
2020/12/01 12:27:04;;;;;;;38.43;25.33;;;;;;;;;;3588333;40;20318;-95
2020/12/01 12:32:14;;;;;;;32.80;22.10;;;;;;;;;;3595777;32;20326;-95
2020/12/01 12:34:40;;;;;;;32.40;19.77;;;;;;;;;;3594732;40;20345;-96
2020/12/01 12:37:06;;;;;;;27.40;19.13;;;;;;;;;;3596777;40;20381;-96
2020/12/01 12:39:33;;;;;;;31.10;19.73;;;;;;;;;;3592453;40;20388;-95
2020/12/01 12:42:00;;;;;;;34.77;19.67;;;;;;;;;;3592434;40;20479;-95
2020/12/01 12:44:26;;;;;;;28.53;17.50;;;;;;;;;;3586979;40;20369;-94
2020/12/01 12:46:53;;;;;;;25.67;18.10;;;;;;;;;;3596121;40;20386;-95
2020/12/01 12:49:20;;;;;;;29.17;17.60;;;;;;;;;;3602721;32;20384;-95
2020/12/01 12:51:46;;;;;;;23.10;15.80;;;;;;;;;;3596860;40;20388;-95
2020/12/01 12:54:13;;;;;;;26.97;17.40;;;;;;;;;;3594310;40;20373;-94
2020/12/01 12:56:39;;;;;;;27.50;17.20;;;;;;;;;;3595303;40;20364;-95
2020/12/01 12:59:05;;;;;;;24.13;15.80;;;;;;;;;;3594182;40;20379;-96
2020/12/01 13:01:32;;;;;;;23.07;13.80;;;;;;;;;;3590769;40;20338;-96
2020/12/01 13:03:58;;;;;;;24.43;16.63;;;;;;;;;;3594672;40;20357;-95
2020/12/01 13:06:26;;;;;;;22.40;14.47;;;;;;;;;;3591707;40;20361;-95
2020/12/01 13:08:53;;;;;;;22.80;16.43;;;;;;;;;;3592575;40;20673;-95
2020/12/01 13:11:19;;;;;;;23.67;15.80;;;;;;;;;;3591743;32;20427;-94
2020/12/01 13:13:45;;;;;;;24.70;16.07;;;;;;;;;;3593645;32;20384;-95
2020/12/01 13:16:14;;;;;;;23.60;15.30;;;;;;;;;;3590964;40;20361;-95
2020/12/01 13:18:40;;;;;;;28.50;17.37;;;;;;;;;;3590869;40;20419;-96
2020/12/01 13:21:06;;;;;;;26.87;14.90;;;;;;;;;;3588268;40;20342;-94
2020/12/01 13:23:34;;;;;;;23.77;16.10;;;;;;;;;;3590712;40;20365;-95
2020/12/01 13:26:00;;;;;;;24.20;16.10;;;;;;;;;;3592688;40;20364;-96
2020/12/01 13:28:27;;;;;;;25.87;15.93;;;;;;;;;;3590492;40;20337;-96
2020/12/01 13:30:53;;;;;;;21.40;14.97;;;;;;;;;;3591918;39;20370;-94
2020/12/01 13:33:19;;;;;;;23.77;15.53;;;;;;;;;;3592564;40;20350;-94
2020/12/01 13:35:45;;;;;;;25.77;17.20;;;;;;;;;;3594315;40;20452;-95
2020/12/01 13:38:12;;;;;;;25.60;16.33;;;;;;;;;;3592386;40;20346;-94
2020/12/01 13:40:39;;;;;;;27.60;17.10;;;;;;;;;;3588181;40;20374;-95
2020/12/01 13:43:05;;;;;;;26.57;17.83;;;;;;;;;;3591974;40;20338;-95
2020/12/01 13:45:31;;;;;;;24.40;15.80;;;;;;;;;;3589866;40;20374;-94
2020/12/01 13:47:58;;;;;;;24.37;16.50;;;;;;;;;;3592911;40;20923;-95
2020/12/01 13:50:25;;;;;;;22.87;16.00;;;;;;;;;;3588520;40;20353;-94
2020/12/01 13:52:51;;;;;;;25.97;17.00;;;;;;;;;;3592428;40;20360;-95
2020/12/01 13:55:18;;;;;;;24.37;15.07;;;;;;;;;;3591785;40;20334;-94
2020/12/01 13:57:45;;;;;;;23.23;16.13;;;;;;;;;;3590578;40;20346;-95
2020/12/01 14:00:15;;;;;;;25.93;17.40;;;;;;;;;;3591246;40;20384;-94
2020/12/01 14:02:41;;;;;;;27.23;16.30;;;;;;;;;;3592037;40;20461;-93
2020/12/01 14:05:07;;;;;;;23.77;16.43;;;;;;;;;;3597100;40;20338;-95
2020/12/01 14:07:33;;;;;;;22.23;15.40;;;;;;;;;;3594021;39;20375;-93
2020/12/01 14:09:59;;;;;;;26.02;15.80;;;;;;;;;;3592279;40;20399;-95
2020/12/01 14:12:25;;;;;;;22.53;14.80;;;;;;;;;;3596881;32;20243;-94
2020/12/01 14:14:54;;;;;;;24.63;15.77;;;;;;;;;;3591547;40;20346;-95
2020/12/01 14:17:20;;;;;;;26.50;16.33;;;;;;;;;;3592269;40;20387;-94
2020/12/01 14:19:46;;;;;;;32.10;17.02;;;;;;;;;;3585528;39;20257;-95
2020/12/01 14:22:13;;;;;;;27.73;17.70;;;;;;;;;;3584113;40;20262;-95
2020/12/01 14:24:39;;;;;;;27.98;17.65;;;;;;;;;;3595454;40;20361;-95
2020/12/01 14:27:05;;;;;;;30.08;18.27;;;;;;;;;;3596812;40;20201;-96
2020/12/01 14:29:31;;;;;;;36.17;21.90;;;;;;;;;;3594272;40;20265;-95
2020/12/01 14:31:59;;;;;;;33.35;21.00;;;;;;;;;;3595182;40;20253;-96
2020/12/01 14:34:25;;;;;;;40.05;23.15;;;;;;;;;;3589223;40;20280;-94
2020/12/01 14:36:51;;;;;;;40.63;23.98;;;;;;;;;;3590635;40;20284;-93
2020/12/01 14:39:18;;;;;;;38.17;24.15;;;;;;;;;;3583537;40;20329;-94
2020/12/01 14:41:45;;;;;;;43.88;24.17;;;;;;;;;;3592757;40;20258;-96
2020/12/01 14:44:15;;;;;;;36.90;23.93;;;;;;;;;;3592127;40;20261;-96
2020/12/01 14:46:47;;;;;;;37.05;24.55;;;;;;;;;;3587936;32;20360;-95
2020/12/01 14:49:17;;;;;;;32.38;23.65;;;;;;;;;;3592706;40;20363;-96
2020/12/01 14:51:56;;;;;;;38.25;24.17;;;;;;;;;;3590766;40;20274;-95
2020/12/01 14:54:22;;;;;;;38.70;23.70;;;;;;;;;;3591267;40;20264;-95
2020/12/01 14:57:01;;;;;;;36.53;23.42;;;;;;;;;;3590575;40;20884;-95
2020/12/01 14:59:42;;;;;;;38.75;23.45;;;;;;;;;;3580707;40;20306;-96
2020/12/01 15:02:20;;;;;;;35.22;19.88;;;;;;;;;;3579322;40;20263;-96
2020/12/01 15:05:16;;;;;;;34.03;21.77;;;;;;;;;;3588960;40;20244;-96
2020/12/01 15:08:01;;;;;;;32.50;21.58;;;;;;;;;;3561010;40;20268;-96
2020/12/01 15:10:29;;;;;;;35.42;22.55;;;;;;;;;;3587603;40;20237;-95
2020/12/01 15:12:56;;;;;;;43.45;24.52;;;;;;;;;;3594550;40;20273;-96
2020/12/01 15:15:24;;;;;;;37.72;21.90;;;;;;;;;;3592861;40;20235;-96
2020/12/01 15:17:51;;;;;;;42.22;25.13;;;;;;;;;;3593005;40;20212;-95
2020/12/01 15:20:20;;;;;;;43.08;23.33;;;;;;;;;;3595669;40;20250;-96
2020/12/01 15:23:05;;;;;;;41.20;24.08;;;;;;;;;;3593993;40;20271;-94
2020/12/01 15:25:33;;;;;;;46.65;25.98;;;;;;;;;;3593375;40;20254;-96
2020/12/01 15:28:01;;;;;;;51.92;27.58;;;;;;;;;;3595362;40;20263;-95
2020/12/01 15:30:28;;;;;;;46.38;27.45;;;;;;;;;;3595110;40;20250;-95
2020/12/01 15:32:54;;;;;;;48.00;28.15;;;;;;;;;;3595880;40;20234;-95
2020/12/01 15:35:24;;;;;;;60.65;32.10;;;;;;;;;;3594690;40;20262;-95
2020/12/01 15:37:52;;;;;;;51.88;30.50;;;;;;;;;;3594881;40;20255;-95
2020/12/01 15:40:33;;;;;;;55.53;28.00;;;;;;;;;;3595146;39;20385;-94
2020/12/01 15:43:00;;;;;;;56.45;31.10;;;;;;;;;;3599888;39;20266;-95
2020/12/01 15:45:27;;;;;;;51.30;29.75;;;;;;;;;;3597143;39;20862;-95
2020/12/01 15:47:53;;;;;;;61.08;33.65;;;;;;;;;;3594042;40;20255;-96
2020/12/01 15:56:20;;;;;;;62.88;35.05;;;;;;;;;;3600444;32;20231;-96
2020/12/01 15:59:12;;;;;;;66.28;33.70;;;;;;;;;;3607112;32;20271;-96
2020/12/01 16:14:48;;;;;;;58.47;33.50;;;;;;;;;;3617828;39;20334;-95
2020/12/01 16:17:20;;;;;;;51.83;31.45;;;;;;;;;;3604333;40;20334;-94
2020/12/01 16:19:49;;;;;;;62.13;35.53;;;;;;;;;;3606535;39;20250;-94
2020/12/01 16:22:18;;;;;;;62.28;33.75;;;;;;;;;;3617749;39;20226;-94
2020/12/01 16:24:44;;;;;;;54.72;31.45;;;;;;;;;;3619092;39;20302;-95
2020/12/01 16:27:14;;;;;;;59.97;33.10;;;;;;;;;;3620624;39;20242;-95
2020/12/01 16:30:01;;;;;;;59.95;34.80;;;;;;;;;;3616997;39;20317;-94
2020/12/01 16:32:29;;;;;;;73.85;42.60;;;;;;;;;;3604670;40;20268;-96
2020/12/01 16:34:57;;;;;;;96.18;53.00;;;;;;;;;;3606981;39;20273;-92
2020/12/01 16:37:42;;;;;;;111.18;58.88;;;;;;;;;;3599400;32;20262;-91
2020/12/01 16:40:15;;;;;;;120.18;67.22;;;;;;;;;;3607458;39;20635;-91
2020/12/01 16:42:49;;;;;;;147.77;84.43;;;;;;;;;;3607821;39;20398;-92
2020/12/01 16:45:22;;;;;;;140.10;81.13;;;;;;;;;;3609860;39;20269;-93
2020/12/01 16:48:03;;;;;;;132.38;74.35;;;;;;;;;;3608087;39;20246;-91
2020/12/01 16:50:36;;;;;;;139.35;78.75;;;;;;;;;;3607428;39;20272;-90
2020/12/01 16:53:16;;;;;;;162.27;93.03;;;;;;;;;;3601287;39;20330;-91
2020/12/01 16:55:44;;;;;;;158.50;86.68;;;;;;;;;;3609656;32;20291;-93
2020/12/01 16:58:30;;;;;;;151.15;82.32;;;;;;;;;;3606319;39;20358;-93
2020/12/01 17:00:59;;;;;;;116.13;64.13;;;;;;;;;;3598517;40;20250;-93
2020/12/01 17:03:46;;;;;;;91.70;52.05;;;;;;;;;;3600863;39;20381;-93
2020/12/01 17:06:17;;;;;;;75.60;42.13;;;;;;;;;;3590857;39;20370;-92
2020/12/01 17:08:43;;;;;;;71.38;42.80;;;;;;;;;;3606826;39;20362;-93
2020/12/01 17:11:10;;;;;;;71.03;42.08;;;;;;;;;;3610746;39;20250;-93
2020/12/01 17:13:50;;;;;;;77.38;42.45;;;;;;;;;;3608926;39;20242;-94
2020/12/01 17:16:34;;;;;;;83.82;47.92;;;;;;;;;;3592283;40;20270;-95
2020/12/01 17:19:00;;;;;;;104.20;55.95;;;;;;;;;;3599480;39;20264;-93
2020/12/01 17:21:27;;;;;;;115.45;59.28;;;;;;;;;;3608969;39;20279;-90
2020/12/01 17:23:54;;;;;;;117.82;62.80;;;;;;;;;;3616010;39;20282;-93
2020/12/01 17:26:22;;;;;;;125.57;67.30;;;;;;;;;;3611146;39;20258;-93
2020/12/01 17:28:59;;;;;;;126.88;68.22;;;;;;;;;;3610758;39;20270;-93
2020/12/01 17:31:29;;;;;;;124.93;71.10;;;;;;;;;;3606978;39;20254;-94
2020/12/01 17:34:06;;;;;;;141.75;78.47;;;;;;;;;;3609460;32;20262;-93
2020/12/01 17:36:36;;;;;;;149.73;86.47;;;;;;;;;;3606557;39;20274;-94
2020/12/01 17:42:06;;;;;;;115.95;69.38;;;;;;;;;;3604125;32;20274;-95
2020/12/01 17:44:35;;;;;;;128.73;68.70;;;;;;;;;;3611790;39;20258;-96
2020/12/01 17:47:07;;;;;;;114.68;63.55;;;;;;;;;;3613061;39;20281;-95
2020/12/01 17:49:37;;;;;;;125.18;69.30;;;;;;;;;;3611661;39;20266;-96
2020/12/01 17:57:34;;;;;;;97.05;51.13;;;;;;;;;;3608187;32;20222;-95
2020/12/01 18:00:00;;;;;;;97.13;53.58;;;;;;;;;;3602850;39;20285;-96
2020/12/01 18:02:27;;;;;;;102.18;53.65;;;;;;;;;;3614608;32;20251;-96
2020/12/01 18:25:39;;;;;;;88.22;52.97;;;;;;;;;;3616829;32;20266;-96
2020/12/01 18:28:11;;;;;;;93.00;54.10;;;;;;;;;;3610461;39;20211;-96